createdAt,value
2017-04-09T00:10:08.566Z,95.4
2017-04-09T00:20:19.818Z,95.6
2017-04-09T00:30:31.076Z,95.5
2017-04-09T00:40:42.345Z,96.1
2017-04-09T00:50:53.596Z,96.7
2017-04-09T01:01:04.862Z,97.2
2017-04-09T01:11:16.154Z,97.3
2017-04-09T01:21:27.441Z,98.5
2017-04-09T01:31:38.758Z,100
2017-04-09T01:41:50.171Z,100
2017-04-09T01:52:01.631Z,100
2017-04-09T02:02:13.129Z,100
2017-04-09T02:12:24.636Z,100
2017-04-09T02:22:36.167Z,100
2017-04-09T02:32:47.905Z,100
2017-04-09T02:42:59.473Z,100
2017-04-09T02:53:11.147Z,100
2017-04-09T03:03:23.061Z,100
2017-04-09T03:13:34.613Z,100
2017-04-09T03:23:46.338Z,100
2017-04-09T03:33:58.156Z,100
2017-04-09T03:44:09.834Z,100
2017-04-09T03:54:21.544Z,100
2017-04-09T04:04:33.328Z,100
2017-04-09T04:14:45.128Z,100
2017-04-09T04:24:56.908Z,100
2017-04-09T04:35:08.611Z,100
2017-04-09T04:45:20.362Z,100
2017-04-09T04:55:32.017Z,100
2017-04-09T05:05:43.671Z,100
2017-04-09T05:15:55.219Z,100
2017-04-09T05:26:06.659Z,100
2017-04-09T05:36:18.016Z,100
2017-04-09T05:46:29.199Z,100
2017-04-09T05:56:40.222Z,100
2017-04-09T06:06:51.113Z,100
2017-04-09T06:17:01.854Z,100
2017-04-09T06:27:12.471Z,100
2017-04-09T06:37:22.891Z,100
2017-04-09T06:47:33.112Z,100
2017-04-09T06:57:43.094Z,99
2017-04-09T07:07:52.990Z,96.3
2017-04-09T07:18:02.620Z,93.4
2017-04-09T07:28:12.098Z,90.7
2017-04-09T07:38:21.445Z,92.4
2017-04-09T07:48:30.755Z,91
2017-04-09T07:58:39.870Z,87.5
2017-04-09T08:08:48.748Z,87.5
2017-04-09T08:18:57.515Z,83.7
2017-04-09T08:29:06.199Z,81.8
2017-04-09T08:39:14.892Z,79.6
2017-04-09T08:49:23.522Z,80.5
2017-04-09T08:59:32.116Z,79.3
2017-04-09T09:09:40.632Z,76.5
2017-04-09T09:19:48.989Z,70.9
2017-04-09T09:29:57.250Z,68.8
2017-04-09T09:40:05.410Z,68.4
2017-04-09T09:50:13.501Z,67.5
2017-04-09T10:00:21.638Z,64
2017-04-09T10:10:29.556Z,62.4
2017-04-09T10:20:37.528Z,61.5
2017-04-09T10:30:45.459Z,57
2017-04-09T10:40:53.265Z,56.5
2017-04-09T10:51:01.083Z,55.8
2017-04-09T11:01:08.833Z,53
2017-04-09T11:11:16.667Z,53.3
2017-04-09T11:21:24.546Z,51
2017-04-09T11:31:32.341Z,47.4
2017-04-09T11:41:40.083Z,45.7
2017-04-09T11:51:47.709Z,44.5
2017-04-09T12:01:55.299Z,45.3
2017-04-09T12:12:02.871Z,43.7
2017-04-09T12:22:10.372Z,42.6
2017-04-09T12:32:17.771Z,42.3
2017-04-09T12:42:25.156Z,42
2017-04-09T12:52:32.463Z,38.9
2017-04-09T13:02:39.779Z,36
2017-04-09T13:12:47.157Z,35.5
2017-04-09T13:22:54.510Z,37.1
2017-04-09T13:33:01.822Z,35.6
2017-04-09T13:43:09.126Z,36.1
2017-04-09T13:53:16.415Z,36
2017-04-09T14:03:23.767Z,34.4
2017-04-09T14:13:31.077Z,32.9
2017-04-09T14:23:38.316Z,33.1
2017-04-09T14:33:45.539Z,33.2
2017-04-09T14:43:52.679Z,29.6
2017-04-09T14:53:59.878Z,29.3
2017-04-09T15:04:07.106Z,29.3
2017-04-09T15:14:14.383Z,29.3
2017-04-09T15:24:21.652Z,27.2
2017-04-09T15:34:28.858Z,28.2
2017-04-09T15:44:36.099Z,30.1
2017-04-09T15:54:43.493Z,29.2
2017-04-09T16:04:51.162Z,29
2017-04-09T16:14:59.168Z,28.4
2017-04-09T16:25:07.421Z,29.2
2017-04-09T16:35:15.837Z,29.5
2017-04-09T16:45:24.126Z,28.8
2017-04-09T16:55:32.292Z,28.3
2017-04-09T17:05:40.498Z,28.4
2017-04-09T17:15:48.982Z,29.3
2017-04-09T17:25:57.610Z,30.5
2017-04-09T17:36:06.329Z,31
2017-04-09T17:46:15.114Z,31.9
2017-04-09T17:56:23.983Z,33
2017-04-09T18:06:32.998Z,33.6
2017-04-09T18:16:42.153Z,35.7
2017-04-09T18:26:51.429Z,37.5
2017-04-09T18:37:00.809Z,36.4
2017-04-09T18:47:10.205Z,33.7
2017-04-09T18:57:19.600Z,33.6
2017-04-09T19:07:28.956Z,36.4
2017-04-09T19:17:38.326Z,37.7
2017-04-09T19:27:47.729Z,38.3
2017-04-09T19:37:57.168Z,39.2
2017-04-09T19:48:06.683Z,39.6
2017-04-09T19:58:16.156Z,41.4
2017-04-09T20:08:25.662Z,42.6
2017-04-09T20:18:35.152Z,42.8
2017-04-09T20:28:44.687Z,42
2017-04-09T20:38:54.234Z,43
2017-04-09T20:49:03.792Z,43.3
2017-04-09T20:59:13.418Z,44
2017-04-09T21:09:23.093Z,45.2
2017-04-09T21:19:32.794Z,47
2017-04-09T21:29:42.486Z,47.2
2017-04-09T21:39:52.238Z,47.2
2017-04-09T21:50:01.973Z,48.2
2017-04-09T22:00:11.748Z,49.3
2017-04-09T22:10:21.554Z,49.8
2017-04-09T22:20:31.351Z,50.9
2017-04-09T22:30:41.144Z,51.5
2017-04-09T22:40:50.957Z,52
2017-04-09T22:51:00.776Z,52.7
2017-04-09T23:01:10.601Z,53.4
2017-04-09T23:11:20.468Z,51.7
2017-04-09T23:21:30.338Z,52.6
2017-04-09T23:31:40.208Z,54.2
2017-04-09T23:41:50.118Z,55
2017-04-09T23:52:00.103Z,55.5
